x

Virginia Beach 64 Nm East Of Virginia Beach, Va (44014) Wave Buoy

7:50 - Thu 23rd Feb 2017 All times are EST. -5 hours from GMT.

  • Sig Wave height 3.0ft
  • Swell Direction
  • Peak Period 10s
  • Average Period 7s
  • Wind
    4mph, 11mph gusts
  • Sea Temp 54°f
  • Ar Temp 58°f
  • Sea Pressure 1015mb
  • Virginia Beach 64 Nm East Of Virginia Beach, Va
  • Virginia Beach 64 Nm East Of Virginia Beach, Va

More Historic Weather Station data

Upgrade to MSW Pro to gain access to the past 30 days of data for over 8000 Wavebouys and Weather Stations around the globe.

Join Pro

Comparision Forecast

View Surf forecast
   
Qui 02/23 7:50 3ft 10s 7s 4 11 mph 1015mb 54f 58f
6:50 3ft 9s 7s 2
mph
1014.5mb 54f 58f
5:50 3ft 10s 7s 4
mph
1014mb 54f 58f
Qua 02/22 8:50 4ft 9s 7s 7 9 mph 1018.1mb 53f 56f
7:50 4.5ft 8s 7s 9
mph
1018.1mb 53f 56f
5:50 4ft 9s 7s 7
mph
1018mb 53f 56f
4:50 4ft 9s 7s 7 9 mph 1017.7mb 53f 55f
3:50 4ft 9s 7s 4
mph
1018mb 53f 55f
2:50 3.5ft 9s 6s 4
mph
1018.4mb 53f 55f
1:50 3.5ft 9s 6s 4
mph
1019mb 53f 54f
12:50 4ft 7s 6s 7
mph
1019.6mb 53f 54f
Ter 02/21 11:50 4ft 8s 6s 7 9 mph 1020.3mb 53f 54f
10:50 4.5ft 8s 6s 9 11 mph 1021mb 53f 53f
9:50 4.5ft 8s 5s 11 13 mph 1021.5mb 52f 53f
8:50 4.5ft 8s 5s 13 16 mph 1021.7mb 52f 53f
7:50 4.5ft 8s 5s 11 13 mph 1021.8mb 52f 53f
6:50 3.5ft 8s 5s 13 16 mph 1022.2mb 53f 53f
5:50 4ft 7s 5s 13 18 mph 1022.2mb 53f 52f
4:50 4ft 8s 5s 13 18 mph 1022.2mb 53f 52f
3:50 3.5ft 6s 5s 16 18 mph 1022.7mb 53f 52f
2:50 3.5ft 6s 5s 13 16 mph 1023.5mb 54f 51f
1:50 4ft 6s 5s 13 16 mph 1024mb 54f 51f
12:50 4ft 7s 5s 13 16 mph 1024.5mb 54f 51f
11:50 4.5ft 7s 5s 16 18 mph 1025mb 54f 51f
10:50 4.5ft 7s 5s 16 18 mph 1025.5mb 54f 51f
9:50 4ft 7s 5s 16 20 mph 1025.8mb 54f 51f
8:50 4ft 7s 5s 13 16 mph 1026.5mb 53f 51f
7:50 4ft 6s 5s 13 18 mph 1026.3mb 53f 51f
6:50 3.5ft 6s 4s 16 18 mph 1025.7mb 53f 51f
5:50 3.5ft 6s 4s 18 22 mph 1024.9mb 53f 51f
4:50 4ft 6s 4s 18 22 mph 1024.4mb 53f 52f
3:50 3.5ft 6s 4s 18 22 mph 1024.3mb 53f 52f
2:50 3.5ft 6s 4s 18 22 mph 1024.1mb 53f 52f
1:50 3.5ft 6s 4s 18 20 mph 1024.5mb 53f 52f
12:50 3.5ft 5s 4s 18 22 mph 1024.6mb 53f 53f
Seg 02/20 11:50 3.5ft 5s 4s 18 22 mph 1024.3mb 53f 53f
10:50 3ft 5s 4s 20 22 mph 1024mb 53f 53f
9:50 3ft 6s 4s 18 20 mph 1024.4mb 54f 53f
8:50 2.5ft 6s 4s 13 16 mph 1024.3mb 54f 52f
7:50 2.5ft 5s 4s 13 18 mph 1023.8mb 54f 52f
6:50 2.5ft 5s 4s 13 16 mph 1023.7mb 54f 52f
5:50 2.5ft 5s 4s 11 13 mph 1022.9mb 54f 52f
4:50 2.5ft 5s 4s 13 16 mph 1022.2mb 54f 52f
3:50 2.5ft 5s 4s 13 16 mph 1021.7mb 53f 52f
2:50 2.5ft 4s 4s 13 16 mph 1021.3mb 52f 52f
1:50 3ft 4s 4s 16 18 mph 1021.6mb 51f 51f
12:50 2.5ft 4s 4s 16 18 mph 1021.7mb 51f 51f
11:50 2.5ft 5s 4s 11 13 mph 1022.2mb 51f 51f
10:50 3ft 5s 4s 13 16 mph 1022.4mb 51f 52f
9:50 3ft 4s 4s 16 18 mph 1021.4mb 51f 52f
8:50 3ft 4s 4s 16 20 mph 1021.2mb 51f 52f
7:50 2ft 3s 3s 16 20 mph 1020.6mb 51f 53f
6:50 1.6ft 3s 3s 16 20 mph 1019.5mb 51f 52f
5:50 1.3ft 7s 4s 16 18 mph 1018.7mb 51f 51f
4:50 1.3ft 8s 5s 11
mph
1017.8mb 51f 52f
3:50 1.3ft 7s 5s 9 11 mph 1016.9mb 51f 53f
2:50 1.3ft 7s 5s 11 13 mph 1017mb 51f 53f
1:50 1.3ft 8s 5s 9 11 mph 1016.8mb 51f 52f
12:50 1.3ft 7s 5s 9 11 mph 1016.6mb 51f 52f
Dom 02/19 11:50 1.6ft 7s 5s 7
mph
1016.1mb 51f 52f
10:50 1.6ft 7s 5s 4
mph
1016.1mb 51f 52f
9:50 1.6ft 8s 5s 4 7 mph 1015.5mb 51f 52f
8:50 2ft 8s 5s 4
mph
1015.1mb 51f 53f
7:50 2ft 7s 6s 2
mph
1014.5mb 51f 53f
6:50 1.6ft 8s 5s 7 9 mph 1013.9mb 51f 53f
5:50 1.6ft 8s 5s 9
mph
1013.4mb 51f 53f
4:50 1.6ft 5s 4s 11
mph
1012.7mb 51f 53f
3:50 1.6ft 5s 4s 13 16 mph 1012.5mb 52f 53f
2:50 2ft 5s 4s 9
mph
1012.1mb 52f 53f